aviador You're here:

OMDW Decoded Metar

in
Report Time2017-11-25 03:00:00
UTC Time2017-11-25 03:39:50
Flight Rules vfr VFR
Wind170° at 06 kt
W.Decomp.*RWY 12: 3.9 kt HW 4.6 kt RCW
W.Rank170° ranks 4
Current wind is below 170° avg. (8.5)
Visibility9999 m
Phenomena:N/A
Clouds:N/A
Expected CloudBase > 2,000 ft AGL from Temp-Dew spread
CeilingNone
Temp19°C
Dew Point14°C (73% RH)
AAT18.1°C
QNH1020 hPa
Raw Report
METAR OMDW 250300Z 17006KT CAVOK 19/14 Q1020 NOSIG=

Extra information for OMDW:More info

Social comments